sensor_id;sensor_type;location;lat;lon;timestamp;temperature;humidity
12225;DHT22;6175;50.956;11.064;2022-09-03T00:01:09;15.90;86.30
12225;DHT22;6175;50.956;11.064;2022-09-03T00:03:43;15.90;86.50
12225;DHT22;6175;50.956;11.064;2022-09-03T00:06:14;15.90;86.70
12225;DHT22;6175;50.956;11.064;2022-09-03T00:08:45;15.90;86.70
12225;DHT22;6175;50.956;11.064;2022-09-03T00:11:17;15.90;86.90
12225;DHT22;6175;50.956;11.064;2022-09-03T00:13:49;15.80;86.90
12225;DHT22;6175;50.956;11.064;2022-09-03T00:16:19;15.80;87.10
12225;DHT22;6175;50.956;11.064;2022-09-03T00:18:51;15.70;87.30
12225;DHT22;6175;50.956;11.064;2022-09-03T00:21:34;15.70;87.50
12225;DHT22;6175;50.956;11.064;2022-09-03T00:24:04;15.70;87.80
12225;DHT22;6175;50.956;11.064;2022-09-03T00:26:34;15.60;88.00
12225;DHT22;6175;50.956;11.064;2022-09-03T00:29:08;15.60;88.30
12225;DHT22;6175;50.956;11.064;2022-09-03T00:31:37;15.60;88.40
12225;DHT22;6175;50.956;11.064;2022-09-03T00:34:10;17.60;89.60
12225;DHT22;6175;50.956;11.064;2022-09-03T00:36:43;15.50;88.60
12225;DHT22;6175;50.956;11.064;2022-09-03T00:39:12;15.50;88.70
12225;DHT22;6175;50.956;11.064;2022-09-03T00:41:47;15.50;88.70
12225;DHT22;6175;50.956;11.064;2022-09-03T00:44:30;15.50;88.90
12225;DHT22;6175;50.956;11.064;2022-09-03T00:47:03;15.50;89.00
12225;DHT22;6175;50.956;11.064;2022-09-03T00:49:42;15.40;89.40
12225;DHT22;6175;50.956;11.064;2022-09-03T00:52:17;15.40;89.30
12225;DHT22;6175;50.956;11.064;2022-09-03T00:54:54;15.40;89.30
12225;DHT22;6175;50.956;11.064;2022-09-03T00:57:33;15.40;89.50
12225;DHT22;6175;50.956;11.064;2022-09-03T01:00:05;13.30;88.40
12225;DHT22;6175;50.956;11.064;2022-09-03T01:02:44;15.40;89.80
12225;DHT22;6175;50.956;11.064;2022-09-03T01:05:22;15.40;90.00
12225;DHT22;6175;50.956;11.064;2022-09-03T01:08:02;15.20;90.10
12225;DHT22;6175;50.956;11.064;2022-09-03T01:10:39;15.10;90.30
12225;DHT22;6175;50.956;11.064;2022-09-03T01:13:12;15.00;90.60
12225;DHT22;6175;50.956;11.064;2022-09-03T01:15:47;14.90;90.60
12225;DHT22;6175;50.956;11.064;2022-09-03T01:18:24;14.80;90.80
12225;DHT22;6175;50.956;11.064;2022-09-03T01:21:09;14.80;91.10
12225;DHT22;6175;50.956;11.064;2022-09-03T01:24:16;14.70;91.20
12225;DHT22;6175;50.956;11.064;2022-09-03T01:27:02;14.60;91.50
12225;DHT22;6175;50.956;11.064;2022-09-03T01:29:38;14.50;91.60
12225;DHT22;6175;50.956;11.064;2022-09-03T01:32:15;14.50;91.90
12225;DHT22;6175;50.956;11.064;2022-09-03T01:34:52;14.40;92.00
12225;DHT22;6175;50.956;11.064;2022-09-03T01:37:31;14.20;92.20
12225;DHT22;6175;50.956;11.064;2022-09-03T01:40:07;14.10;92.30
12225;DHT22;6175;50.956;11.064;2022-09-03T01:42:47;14.00;92.50
12225;DHT22;6175;50.956;11.064;2022-09-03T01:45:47;13.90;92.80
12225;DHT22;6175;50.956;11.064;2022-09-03T01:48:31;13.80;93.20
12225;DHT22;6175;50.956;11.064;2022-09-03T01:51:07;13.80;93.40
12225;DHT22;6175;50.956;11.064;2022-09-03T01:56:42;13.60;93.80
12225;DHT22;6175;50.956;11.064;2022-09-03T01:59:16;13.50;94.00
12225;DHT22;6175;50.956;11.064;2022-09-03T02:01:52;13.40;94.30
12225;DHT22;6175;50.956;11.064;2022-09-03T02:04:25;13.30;94.50
12225;DHT22;6175;50.956;11.064;2022-09-03T02:06:55;13.30;94.90
12225;DHT22;6175;50.956;11.064;2022-09-03T02:11:53;13.10;95.20
12225;DHT22;6175;50.956;11.064;2022-09-03T02:19:18;13.00;96.10
12225;DHT22;6175;50.956;11.064;2022-09-03T02:21:48;12.80;96.40
12225;DHT22;6175;50.956;11.064;2022-09-03T02:26:43;12.70;96.90
12225;DHT22;6175;50.956;11.064;2022-09-03T02:29:12;12.70;97.10
12225;DHT22;6175;50.956;11.064;2022-09-03T02:36:38;12.40;98.00
12225;DHT22;6175;50.956;11.064;2022-09-03T02:39:06;12.40;98.30
12225;DHT22;6175;50.956;11.064;2022-09-03T02:44:03;12.30;99.00
12225;DHT22;6175;50.956;11.064;2022-09-03T02:46:34;12.30;99.20
12225;DHT22;6175;50.956;11.064;2022-09-03T02:51:33;12.20;99.80
12225;DHT22;6175;50.956;11.064;2022-09-03T02:58:55;12.10;99.90
12225;DHT22;6175;50.956;11.064;2022-09-03T03:01:23;12.00;99.90
12225;DHT22;6175;50.956;11.064;2022-09-03T03:08:48;11.90;99.90
12225;DHT22;6175;50.956;11.064;2022-09-03T03:11:16;11.90;99.90
12225;DHT22;6175;50.956;11.064;2022-09-03T03:13:45;11.80;99.90
12225;DHT22;6175;50.956;11.064;2022-09-03T03:16:13;11.80;99.90
12225;DHT22;6175;50.956;11.064;2022-09-03T03:18:41;11.80;99.90
12225;DHT22;6175;50.956;11.064;2022-09-03T03:21:12;11.70;99.90
12225;DHT22;6175;50.956;11.064;2022-09-03T03:26:10;11.60;99.90
12225;DHT22;6175;50.956;11.064;2022-09-03T03:28:37;11.60;99.90
12225;DHT22;6175;50.956;11.064;2022-09-03T03:36:05;11.50;99.90
12225;DHT22;6175;50.956;11.064;2022-09-03T03:41:06;11.50;99.90
12225;DHT22;6175;50.956;11.064;2022-09-03T03:46:01;11.50;99.90
12225;DHT22;6175;50.956;11.064;2022-09-03T03:50:59;11.50;99.90
12225;DHT22;6175;50.956;11.064;2022-09-03T03:53:28;11.40;99.90
12225;DHT22;6175;50.956;11.064;2022-09-03T03:58:23;11.40;99.90
12225;DHT22;6175;50.956;11.064;2022-09-03T04:00:51;11.40;99.90
12225;DHT22;6175;50.956;11.064;2022-09-03T04:03:18;11.50;99.90
12225;DHT22;6175;50.956;11.064;2022-09-03T04:05:54;11.40;99.90
12225;DHT22;6175;50.956;11.064;2022-09-03T04:23:06;11.10;99.90
12225;DHT22;6175;50.956;11.064;2022-09-03T04:25:33;11.10;99.90
12225;DHT22;6175;50.956;11.064;2022-09-03T04:28:00;11.10;99.90
12225;DHT22;6175;50.956;11.064;2022-09-03T04:42:56;10.90;99.90
12225;DHT22;6175;50.956;11.064;2022-09-03T04:47:58;10.80;99.90
12225;DHT22;6175;50.956;11.064;2022-09-03T04:50:28;10.80;99.90
12225;DHT22;6175;50.956;11.064;2022-09-03T04:53:00;10.80;99.90
12225;DHT22;6175;50.956;11.064;2022-09-03T04:57:55;10.80;99.90
12225;DHT22;6175;50.956;11.064;2022-09-03T05:02:49;10.80;99.90
12225;DHT22;6175;50.956;11.064;2022-09-03T05:05:17;10.80;99.90
12225;DHT22;6175;50.956;11.064;2022-09-03T05:10:13;10.90;99.90
12225;DHT22;6175;50.956;11.064;2022-09-03T05:15:13;10.90;99.90
12225;DHT22;6175;50.956;11.064;2022-09-03T05:25:04;11.10;99.90
12225;DHT22;6175;50.956;11.064;2022-09-03T05:32:25;11.40;99.90
12225;DHT22;6175;50.956;11.064;2022-09-03T05:39:50;11.80;99.90
12225;DHT22;6175;50.956;11.064;2022-09-03T05:44:47;12.00;99.90
12225;DHT22;6175;50.956;11.064;2022-09-03T05:57:03;12.80;99.90
12225;DHT22;6175;50.956;11.064;2022-09-03T05:59:31;13.00;99.90
12225;DHT22;6175;50.956;11.064;2022-09-03T06:06:52;13.40;99.90
12225;DHT22;6175;50.956;11.064;2022-09-03T06:09:20;13.60;99.90
12225;DHT22;6175;50.956;11.064;2022-09-03T06:11:47;13.70;99.90
12225;DHT22;6175;50.956;11.064;2022-09-03T06:14:15;13.80;99.90
12225;DHT22;6175;50.956;11.064;2022-09-03T06:16:44;13.90;99.90
12225;DHT22;6175;50.956;11.064;2022-09-03T06:21:42;14.10;99.90
12225;DHT22;6175;50.956;11.064;2022-09-03T06:24:10;14.20;99.90
12225;DHT22;6175;50.956;11.064;2022-09-03T06:26:38;14.40;99.90
12225;DHT22;6175;50.956;11.064;2022-09-03T06:29:05;14.50;99.90
12225;DHT22;6175;50.956;11.064;2022-09-03T06:41:26;15.10;99.90
12225;DHT22;6175;50.956;11.064;2022-09-03T06:43:55;15.20;99.90
12225;DHT22;6175;50.956;11.064;2022-09-03T06:46:23;15.30;99.90
12225;DHT22;6175;50.956;11.064;2022-09-03T06:48:50;15.40;99.90
12225;DHT22;6175;50.956;11.064;2022-09-03T06:51:20;15.50;99.90
12225;DHT22;6175;50.956;11.064;2022-09-03T06:53:49;15.40;99.90
12225;DHT22;6175;50.956;11.064;2022-09-03T06:56:19;15.40;99.90
12225;DHT22;6175;50.956;11.064;2022-09-03T07:01:17;15.50;99.90
12225;DHT22;6175;50.956;11.064;2022-09-03T07:03:45;15.60;99.90
12225;DHT22;6175;50.956;11.064;2022-09-03T07:06:15;15.70;99.90
12225;DHT22;6175;50.956;11.064;2022-09-03T07:08:44;16.00;99.90
12225;DHT22;6175;50.956;11.064;2022-09-03T07:11:12;16.20;99.90
12225;DHT22;6175;50.956;11.064;2022-09-03T07:13:42;16.40;99.90
12225;DHT22;6175;50.956;11.064;2022-09-03T07:16:12;16.60;99.60
12225;DHT22;6175;50.956;11.064;2022-09-03T07:18:40;16.70;99.50
12225;DHT22;6175;50.956;11.064;2022-09-03T07:21:09;17.00;99.00
12225;DHT22;6175;50.956;11.064;2022-09-03T07:23:37;17.10;98.20
12225;DHT22;6175;50.956;11.064;2022-09-03T07:26:08;17.20;97.10
12225;DHT22;6175;50.956;11.064;2022-09-03T07:28:36;17.20;97.00
12225;DHT22;6175;50.956;11.064;2022-09-03T07:31:06;17.10;98.00
12225;DHT22;6175;50.956;11.064;2022-09-03T07:33:33;17.10;97.60
12225;DHT22;6175;50.956;11.064;2022-09-03T07:36:05;17.10;97.60
12225;DHT22;6175;50.956;11.064;2022-09-03T07:38:32;17.20;97.80
12225;DHT22;6175;50.956;11.064;2022-09-03T07:41:00;17.40;97.90
12225;DHT22;6175;50.956;11.064;2022-09-03T07:43:34;17.70;97.10
12225;DHT22;6175;50.956;11.064;2022-09-03T07:46:01;17.90;96.20
12225;DHT22;6175;50.956;11.064;2022-09-03T07:50:57;20.90;94.50
12225;DHT22;6175;50.956;11.064;2022-09-03T07:53:26;18.30;92.90
12225;DHT22;6175;50.956;11.064;2022-09-03T07:55:53;18.50;92.40
12225;DHT22;6175;50.956;11.064;2022-09-03T07:58:21;18.60;92.10
12225;DHT22;6175;50.956;11.064;2022-09-03T08:00:50;18.70;92.20
12225;DHT22;6175;50.956;11.064;2022-09-03T08:03:17;19.00;91.30
12225;DHT22;6175;50.956;11.064;2022-09-03T08:05:44;19.10;90.90
12225;DHT22;6175;50.956;11.064;2022-09-03T08:15:35;19.50;89.20
12225;DHT22;6175;50.956;11.064;2022-09-03T08:27:58;19.80;85.00
12225;DHT22;6175;50.956;11.064;2022-09-03T08:32:53;20.00;85.20
12225;DHT22;6175;50.956;11.064;2022-09-03T08:37:49;20.10;83.80
12225;DHT22;6175;50.956;11.064;2022-09-03T08:40:19;18.70;82.20
12225;DHT22;6175;50.956;11.064;2022-09-03T08:42:57;20.20;82.30
12225;DHT22;6175;50.956;11.064;2022-09-03T08:45:31;20.30;82.20
12225;DHT22;6175;50.956;11.064;2022-09-03T08:48:04;20.20;81.00
12225;DHT22;6175;50.956;11.064;2022-09-03T08:50:38;20.40;80.50
12225;DHT22;6175;50.956;11.064;2022-09-03T08:53:11;20.50;80.10
12225;DHT22;6175;50.956;11.064;2022-09-03T08:55:44;20.60;79.50
12225;DHT22;6175;50.956;11.064;2022-09-03T08:58:14;20.80;79.30
12225;DHT22;6175;50.956;11.064;2022-09-03T09:00:48;20.90;78.90
12225;DHT22;6175;50.956;11.064;2022-09-03T09:03:41;21.00;78.70
12225;DHT22;6175;50.956;11.064;2022-09-03T09:06:20;21.10;77.00
12225;DHT22;6175;50.956;11.064;2022-09-03T09:09:00;21.20;75.80
12225;DHT22;6175;50.956;11.064;2022-09-03T09:11:39;21.30;75.80
12225;DHT22;6175;50.956;11.064;2022-09-03T09:14:12;21.30;75.30
12225;DHT22;6175;50.956;11.064;2022-09-03T09:16:48;21.40;75.60
12225;DHT22;6175;50.956;11.064;2022-09-03T09:19:33;21.50;74.80
12225;DHT22;6175;50.956;11.064;2022-09-03T09:22:08;21.60;73.10
12225;DHT22;6175;50.956;11.064;2022-09-03T09:24:39;21.70;72.10
12225;DHT22;6175;50.956;11.064;2022-09-03T09:29:36;21.80;72.10
12225;DHT22;6175;50.956;11.064;2022-09-03T09:32:06;21.90;70.90
12225;DHT22;6175;50.956;11.064;2022-09-03T09:34:34;21.80;70.50
12225;DHT22;6175;50.956;11.064;2022-09-03T09:37:07;21.90;69.50
12225;DHT22;6175;50.956;11.064;2022-09-03T09:42:06;21.80;69.50
12225;DHT22;6175;50.956;11.064;2022-09-03T09:44:35;21.90;69.40
12225;DHT22;6175;50.956;11.064;2022-09-03T09:47:05;22.10;68.70
12225;DHT22;6175;50.956;11.064;2022-09-03T09:49:34;22.20;68.20
12225;DHT22;6175;50.956;11.064;2022-09-03T09:52:08;22.40;67.50
12225;DHT22;6175;50.956;11.064;2022-09-03T09:54:37;22.40;67.10
12225;DHT22;6175;50.956;11.064;2022-09-03T09:57:06;22.50;67.20
12225;DHT22;6175;50.956;11.064;2022-09-03T09:59:34;22.60;66.60
12225;DHT22;6175;50.956;11.064;2022-09-03T10:02:13;22.60;65.60
12225;DHT22;6175;50.956;11.064;2022-09-03T10:04:40;22.70;65.10
12225;DHT22;6175;50.956;11.064;2022-09-03T10:07:22;22.70;64.20
12225;DHT22;6175;50.956;11.064;2022-09-03T10:10:01;22.90;62.80
12225;DHT22;6175;50.956;11.064;2022-09-03T10:12:31;23.00;62.50
12225;DHT22;6175;50.956;11.064;2022-09-03T10:15:08;23.10;62.00
12225;DHT22;6175;50.956;11.064;2022-09-03T10:17:44;23.20;61.60
12225;DHT22;6175;50.956;11.064;2022-09-03T10:20:15;23.30;61.50
12225;DHT22;6175;50.956;11.064;2022-09-03T10:22:59;23.30;63.10
12225;DHT22;6175;50.956;11.064;2022-09-03T10:25:33;23.40;62.60
12225;DHT22;6175;50.956;11.064;2022-09-03T10:28:04;23.60;62.40
12225;DHT22;6175;50.956;11.064;2022-09-03T10:30:40;23.60;61.80
12225;DHT22;6175;50.956;11.064;2022-09-03T10:33:15;23.70;61.80
12225;DHT22;6175;50.956;11.064;2022-09-03T10:35:51;23.70;61.50
12225;DHT22;6175;50.956;11.064;2022-09-03T10:38:26;23.70;62.30
12225;DHT22;6175;50.956;11.064;2022-09-03T10:41:03;23.80;62.30
12225;DHT22;6175;50.956;11.064;2022-09-03T10:44:03;24.00;61.70
12225;DHT22;6175;50.956;11.064;2022-09-03T10:46:38;24.20;60.90
12225;DHT22;6175;50.956;11.064;2022-09-03T10:49:19;24.40;60.10
12225;DHT22;6175;50.956;11.064;2022-09-03T10:51:57;24.50;59.60
12225;DHT22;6175;50.956;11.064;2022-09-03T10:54:38;24.50;59.80
12225;DHT22;6175;50.956;11.064;2022-09-03T10:57:15;24.50;59.70
12225;DHT22;6175;50.956;11.064;2022-09-03T10:59:57;24.60;59.60
12225;DHT22;6175;50.956;11.064;2022-09-03T11:02:51;24.80;59.20
12225;DHT22;6175;50.956;11.064;2022-09-03T11:05:22;24.90;58.80
12225;DHT22;6175;50.956;11.064;2022-09-03T11:07:59;24.60;59.60
12225;DHT22;6175;50.956;11.064;2022-09-03T11:10:30;24.30;59.60
12225;DHT22;6175;50.956;11.064;2022-09-03T11:13:02;24.20;60.30
12225;DHT22;6175;50.956;11.064;2022-09-03T11:15:34;24.20;60.10
12225;DHT22;6175;50.956;11.064;2022-09-03T11:18:06;24.20;59.90
12225;DHT22;6175;50.956;11.064;2022-09-03T11:20:39;27.10;62.00
12225;DHT22;6175;50.956;11.064;2022-09-03T11:23:08;24.10;59.90
12225;DHT22;6175;50.956;11.064;2022-09-03T11:25:41;24.10;60.30
12225;DHT22;6175;50.956;11.064;2022-09-03T11:28:17;24.30;60.50
12225;DHT22;6175;50.956;11.064;2022-09-03T11:30:55;24.60;59.20
12225;DHT22;6175;50.956;11.064;2022-09-03T11:33:27;25.00;57.30
12225;DHT22;6175;50.956;11.064;2022-09-03T11:35:56;25.30;57.10
12225;DHT22;6175;50.956;11.064;2022-09-03T11:38:26;25.60;57.70
12225;DHT22;6175;50.956;11.064;2022-09-03T11:41:00;25.80;55.00
12225;DHT22;6175;50.956;11.064;2022-09-03T11:43:29;25.70;55.60
12225;DHT22;6175;50.956;11.064;2022-09-03T11:46:02;25.60;56.10
12225;DHT22;6175;50.956;11.064;2022-09-03T11:48:41;25.40;55.80
12225;DHT22;6175;50.956;11.064;2022-09-03T11:51:29;25.40;55.80
12225;DHT22;6175;50.956;11.064;2022-09-03T11:53:58;25.30;56.80
12225;DHT22;6175;50.956;11.064;2022-09-03T11:59:00;25.10;55.90
12225;DHT22;6175;50.956;11.064;2022-09-03T12:01:28;25.10;56.10
12225;DHT22;6175;50.956;11.064;2022-09-03T12:03:58;25.50;55.30
12225;DHT22;6175;50.956;11.064;2022-09-03T12:06:39;26.00;54.30
12225;DHT22;6175;50.956;11.064;2022-09-03T12:09:37;26.20;54.00
12225;DHT22;6175;50.956;11.064;2022-09-03T12:12:17;26.40;53.10
12225;DHT22;6175;50.956;11.064;2022-09-03T12:14:57;26.90;52.40
12225;DHT22;6175;50.956;11.064;2022-09-03T12:17:30;27.00;52.20
12225;DHT22;6175;50.956;11.064;2022-09-03T12:22:28;27.00;51.30
12225;DHT22;6175;50.956;11.064;2022-09-03T12:25:06;26.80;51.60
12225;DHT22;6175;50.956;11.064;2022-09-03T12:27:36;26.60;51.80
12225;DHT22;6175;50.956;11.064;2022-09-03T12:30:12;26.60;51.80
12225;DHT22;6175;50.956;11.064;2022-09-03T12:32:40;26.60;52.00
12225;DHT22;6175;50.956;11.064;2022-09-03T12:35:12;26.80;51.60
12225;DHT22;6175;50.956;11.064;2022-09-03T12:37:41;27.00;51.30
12225;DHT22;6175;50.956;11.064;2022-09-03T12:40:17;27.20;50.80
12225;DHT22;6175;50.956;11.064;2022-09-03T12:42:47;27.50;50.70
12225;DHT22;6175;50.956;11.064;2022-09-03T12:45:17;27.70;50.30
12225;DHT22;6175;50.956;11.064;2022-09-03T12:47:44;27.80;49.90
12225;DHT22;6175;50.956;11.064;2022-09-03T12:50:13;27.80;49.40
12225;DHT22;6175;50.956;11.064;2022-09-03T12:52:42;27.80;49.30
12225;DHT22;6175;50.956;11.064;2022-09-03T12:55:28;27.80;48.90
12225;DHT22;6175;50.956;11.064;2022-09-03T12:58:04;27.70;49.10
12225;DHT22;6175;50.956;11.064;2022-09-03T13:00:34;27.60;49.20
12225;DHT22;6175;50.956;11.064;2022-09-03T13:03:04;27.50;49.20
12225;DHT22;6175;50.956;11.064;2022-09-03T13:05:34;27.30;50.20
12225;DHT22;6175;50.956;11.064;2022-09-03T13:08:04;27.20;49.20
12225;DHT22;6175;50.956;11.064;2022-09-03T13:10:35;27.00;49.80
12225;DHT22;6175;50.956;11.064;2022-09-03T13:13:18;26.90;49.90
12225;DHT22;6175;50.956;11.064;2022-09-03T13:16:04;26.60;49.90
12225;DHT22;6175;50.956;11.064;2022-09-03T13:18:37;26.40;50.40
12225;DHT22;6175;50.956;11.064;2022-09-03T13:21:12;26.30;51.00
12225;DHT22;6175;50.956;11.064;2022-09-03T13:23:55;26.20;51.40
12225;DHT22;6175;50.956;11.064;2022-09-03T13:26:31;26.30;51.00
12225;DHT22;6175;50.956;11.064;2022-09-03T13:29:24;26.50;51.20
12225;DHT22;6175;50.956;11.064;2022-09-03T13:31:59;26.50;50.70
12225;DHT22;6175;50.956;11.064;2022-09-03T13:34:31;26.50;50.70
12225;DHT22;6175;50.956;11.064;2022-09-03T13:37:10;26.30;50.60
12225;DHT22;6175;50.956;11.064;2022-09-03T13:39:42;26.00;51.60
12225;DHT22;6175;50.956;11.064;2022-09-03T13:42:15;25.70;51.60
12225;DHT22;6175;50.956;11.064;2022-09-03T13:44:47;25.40;52.00
12225;DHT22;6175;50.956;11.064;2022-09-03T13:47:26;25.20;52.80
12225;DHT22;6175;50.956;11.064;2022-09-03T13:50:00;25.10;52.80
12225;DHT22;6175;50.956;11.064;2022-09-03T13:52:49;25.10;53.10
12225;DHT22;6175;50.956;11.064;2022-09-03T13:55:27;25.10;53.10
12225;DHT22;6175;50.956;11.064;2022-09-03T13:58:02;25.20;53.00
12225;DHT22;6175;50.956;11.064;2022-09-03T14:00:35;25.30;53.20
12225;DHT22;6175;50.956;11.064;2022-09-03T14:03:07;25.30;53.10
12225;DHT22;6175;50.956;11.064;2022-09-03T14:05:53;25.40;53.00
12225;DHT22;6175;50.956;11.064;2022-09-03T14:08:31;25.40;53.20
12225;DHT22;6175;50.956;11.064;2022-09-03T14:11:08;25.30;53.10
12225;DHT22;6175;50.956;11.064;2022-09-03T14:13:59;25.40;53.00
12225;DHT22;6175;50.956;11.064;2022-09-03T14:16:36;25.40;52.90
12225;DHT22;6175;50.956;11.064;2022-09-03T14:19:11;25.40;52.80
12225;DHT22;6175;50.956;11.064;2022-09-03T14:21:44;25.40;52.80
12225;DHT22;6175;50.956;11.064;2022-09-03T14:24:16;25.40;53.00
12225;DHT22;6175;50.956;11.064;2022-09-03T14:26:51;25.40;52.90
12225;DHT22;6175;50.956;11.064;2022-09-03T14:29:22;25.40;53.40
12225;DHT22;6175;50.956;11.064;2022-09-03T14:32:21;25.40;53.50
12225;DHT22;6175;50.956;11.064;2022-09-03T14:40:44;25.20;53.60
12225;DHT22;6175;50.956;11.064;2022-09-03T14:43:27;25.10;53.70
12225;DHT22;6175;50.956;11.064;2022-09-03T14:46:10;25.00;54.30
12225;DHT22;6175;50.956;11.064;2022-09-03T14:48:56;24.80;54.00
12225;DHT22;6175;50.956;11.064;2022-09-03T14:51:34;24.70;54.30
12225;DHT22;6175;50.956;11.064;2022-09-03T14:54:27;24.50;54.80
12225;DHT22;6175;50.956;11.064;2022-09-03T14:57:06;24.40;55.20
12225;DHT22;6175;50.956;11.064;2022-09-03T14:59:56;24.30;55.20
12225;DHT22;6175;50.956;11.064;2022-09-03T15:02:52;24.30;55.50
12225;DHT22;6175;50.956;11.064;2022-09-03T15:05:41;24.20;56.10
12225;DHT22;6175;50.956;11.064;2022-09-03T15:08:20;24.10;55.90
12225;DHT22;6175;50.956;11.064;2022-09-03T15:10:55;24.00;56.10
12225;DHT22;6175;50.956;11.064;2022-09-03T15:13:26;23.90;56.20
12225;DHT22;6175;50.956;11.064;2022-09-03T15:16:12;23.90;57.10
12225;DHT22;6175;50.956;11.064;2022-09-03T15:18:54;23.80;64.10
12225;DHT22;6175;50.956;11.064;2022-09-03T15:21:35;23.70;70.20
12225;DHT22;6175;50.956;11.064;2022-09-03T15:24:09;23.40;71.90
12225;DHT22;6175;50.956;11.064;2022-09-03T15:26:46;23.20;77.10
12225;DHT22;6175;50.956;11.064;2022-09-03T15:29:26;23.10;78.40
12225;DHT22;6175;50.956;11.064;2022-09-03T15:42:10;24.80;87.30
12225;DHT22;6175;50.956;11.064;2022-09-03T15:44:43;22.20;88.30
12225;DHT22;6175;50.956;11.064;2022-09-03T15:47:12;22.10;89.50
12225;DHT22;6175;50.956;11.064;2022-09-03T15:49:58;22.10;90.90
